Time;durP1;ratioP1;P1;durP2;ratioP2;P2;SDS_P1;SDS_P2;PMS_P1;PMS_P2;Temp;Humidity;BMP_temperature;BMP_pressure;BME280_temperature;BME280_humidity;BME280_pressure;Samples;Min_cycle;Max_cycle;Signal;HPM_P1;HPM_P2
2022/06/12 00:00:56;;;;;;;4.05;2.03;;;;;;;21.46;57.46;100161.88;4346929;33;33609;-83
2022/06/12 00:03:26;;;;;;;3.37;2.40;;;;;;;21.69;56.76;100155.41;4347132;33;33741;-85
2022/06/12 00:05:56;;;;;;;3.67;2.62;;;;;;;21.75;56.07;100158.56;4334320;33;32308;-85
2022/06/12 00:08:27;;;;;;;2.62;2.35;;;;;;;21.46;57.07;100161.88;4346639;33;33723;-86
2022/06/12 00:10:56;;;;;;;5.60;2.95;;;;;;;21.54;56.94;100155.84;4346739;33;32993;-85
2022/06/12 00:13:30;;;;;;;2.90;2.55;;;;;;;21.41;57.07;100162.25;4344932;33;32719;-85
2022/06/12 00:15:58;;;;;;;;;;;;;;;21.54;56.91;100156.69;4327126;33;33015;-84
2022/06/12 00:18:26;;;;;;;3.40;2.28;;;;;;;21.69;56.54;100154.53;4358173;32;35066;-84
2022/06/12 00:21:12;;;;;;;4.53;2.60;;;;;;;21.44;57.39;100150.38;4346607;33;33546;-84
2022/06/12 00:23:43;;;;;;;2.95;2.65;;;;;;;21.45;57.62;100146.72;4341780;33;33140;-85
2022/06/12 00:26:13;;;;;;;2.60;2.40;;;;;;;21.70;56.87;100143.69;4347970;33;34805;-85
2022/06/12 00:28:42;;;;;;;3.58;2.47;;;;;;;20.94;59.14;100140.12;4348136;33;33975;-85
2022/06/12 00:31:10;;;;;;;3.12;2.83;;;;;;;21.13;58.68;100141.31;4346345;33;34481;-85
2022/06/12 00:33:39;;;;;;;3.78;2.80;;;;;;;20.88;59.32;100137.91;4334707;33;33451;-83
2022/06/12 00:36:07;;;;;;;2.97;2.70;;;;;;;21.02;59.03;100135.94;4347045;33;34759;-84
2022/06/12 00:38:35;;;;;;;3.62;2.60;;;;;;;21.05;58.76;100141.94;4322974;33;34989;-84
2022/06/12 00:41:03;;;;;;;3.30;2.80;;;;;;;21.18;58.45;100139.94;4321752;33;32662;-86
2022/06/12 00:43:32;;;;;;;3.62;3.33;;;;;;;21.20;58.60;100132.59;4334706;33;32484;-86
2022/06/12 00:46:01;;;;;;;4.32;3.50;;;;;;;21.14;58.56;100137.66;4334189;33;34419;-86
2022/06/12 00:48:32;;;;;;;2.90;2.65;;;;;;;21.09;58.86;100139.84;4322466;33;32574;-85
2022/06/12 00:51:09;;;;;;;5.12;2.60;;;;;;;21.19;58.53;100130.06;4347192;33;33734;-86
2022/06/12 00:53:53;;;;;;;4.32;2.90;;;;;;;20.94;59.54;100139.28;4334365;33;33806;-84
2022/06/12 00:56:26;;;;;;;3.70;3.05;;;;;;;20.53;60.56;100139.94;4324319;33;34294;-84
2022/06/12 00:58:57;;;;;;;4.40;3.20;;;;;;;20.81;59.89;100141.25;4334011;33;33355;-85
2022/06/12 01:01:31;;;;;;;3.97;3.25;;;;;;;20.79;59.62;100133.28;4348188;32;32768;-85
2022/06/12 01:06:47;;;;;;;3.30;3.00;;;;;;;20.82;59.39;100137.59;4329663;33;33575;-85
2022/06/12 01:09:19;;;;;;;6.72;3.50;;;;;;;21.02;58.78;100134.12;4334130;33;32798;-85
2022/06/12 01:11:48;;;;;;;4.75;3.12;;;;;;;20.92;59.20;100125.97;4333245;33;33426;-85
2022/06/12 01:14:19;;;;;;;4.15;3.35;;;;;;;20.85;59.34;100129.28;4346338;33;34025;-84
2022/06/12 01:16:48;;;;;;;2.75;2.55;;;;;;;20.82;59.63;100129.53;4333617;33;32212;-84
2022/06/12 01:19:32;;;;;;;6.28;4.20;;;;;;;20.82;59.71;100122.31;4346707;33;33736;-84
2022/06/12 01:22:36;;;;;;;3.90;3.33;;;;;;;20.70;60.02;100124.19;4334105;33;33825;-84
2022/06/12 01:25:29;;;;;;;3.47;3.12;;;;;;;20.65;60.10;100128.19;4343800;33;34305;-86
2022/06/12 01:28:29;;;;;;;4.78;2.97;;;;;;;20.89;59.29;100120.00;4345228;33;34673;-85
2022/06/12 01:31:09;;;;;;;3.40;2.95;;;;;;;20.57;60.05;100131.50;4345162;33;33909;-86
2022/06/12 01:33:38;;;;;;;4.10;3.20;;;;;;;20.93;58.83;100130.34;4346443;33;33403;-85
2022/06/12 01:36:09;;;;;;;3.85;3.22;;;;;;;20.66;59.92;100133.47;4345546;33;34403;-85
2022/06/12 01:38:38;;;;;;;5.57;3.17;;;;;;;20.62;60.13;100125.78;4345492;33;34506;-86
2022/06/12 01:41:31;;;;;;;3.55;3.08;;;;;;;20.45;60.52;100135.13;4321357;33;33110;-86
2022/06/12 01:44:13;;;;;;;3.55;2.87;;;;;;;20.56;60.33;100132.50;4346174;32;33737;-86
2022/06/12 01:46:44;;;;;;;;;;;;;;;20.51;nan;100126.66;4344562;33;34397;-87
2022/06/12 01:49:41;;;;;;;3.20;2.90;;;;;;;20.62;59.78;100123.94;4345376;33;33458;-86
2022/06/12 01:52:22;;;;;;;2.85;2.65;;;;;;;20.76;59.52;100113.94;4317652;33;33914;-89
2022/06/12 01:54:57;;;;;;;3.08;2.78;;;;;;;20.56;59.81;100127.12;4333799;33;32958;-89
2022/06/12 01:57:33;;;;;;;3.30;3.00;;;;;;;20.70;59.28;100120.66;4332888;33;33979;-85
2022/06/12 02:00:10;;;;;;;6.45;3.00;;;;;;;20.68;58.73;100115.37;4345593;33;32495;-86
2022/06/12 02:02:51;;;;;;;3.10;2.80;;;;;;;20.50;59.19;100121.38;4343660;33;33191;-86
2022/06/12 02:05:36;;;;;;;3.25;2.70;;;;;;;20.27;59.98;100120.50;4347562;32;32969;-86
2022/06/12 02:08:33;;;;;;;3.10;2.78;;;;;;;20.82;58.36;100122.31;4343853;33;33190;-86
2022/06/12 02:13:58;;;;;;;3.80;3.00;;;;;;;20.38;59.24;100118.69;4330899;33;34744;-86
2022/06/12 02:16:30;;;;;;;4.80;3.15;;;;;;;20.69;58.57;100116.25;4338945;32;33857;-87
2022/06/12 02:19:02;;;;;;;3.03;2.75;;;;;;;20.41;59.53;100118.44;4339687;33;32914;-86
2022/06/12 02:22:03;;;;;;;3.40;2.47;;;;;;;20.43;59.48;100118.31;4318629;33;33268;-85
2022/06/12 02:24:53;;;;;;;3.17;2.35;;;;;;;20.79;58.54;100110.97;4316536;33;33063;-85
2022/06/12 02:27:29;;;;;;;4.68;2.80;;;;;;;20.70;58.67;100120.66;4348360;32;33915;-86
2022/06/12 02:30:01;;;;;;;3.33;2.40;;;;;;;20.69;58.50;100121.59;4344546;33;33759;-85
2022/06/12 02:32:56;;;;;;;;;;;;;;;20.82;58.23;100122.31;4332591;33;34749;-85
2022/06/12 02:35:50;;;;;;;2.70;2.50;;;;;;;20.61;58.90;100119.56;4342978;33;33814;-85
2022/06/12 02:38:23;;;;;;;2.92;2.62;;;;;;;20.54;58.83;100123.69;4339936;33;33073;-85
2022/06/12 02:40:56;;;;;;;3.97;2.60;;;;;;;20.67;58.34;100128.94;4335865;33;34481;-84
2022/06/12 02:43:28;;;;;;;3.58;2.80;;;;;;;20.69;58.30;100121.59;4332616;33;32789;-85
2022/06/12 02:46:06;;;;;;;3.22;2.90;;;;;;;20.77;57.70;100123.69;4312183;33;34189;-85
2022/06/12 02:48:35;;;;;;;6.97;3.10;;;;;;;20.53;58.62;100130.03;4330380;33;34121;-85
2022/06/12 02:51:09;;;;;;;2.87;2.47;;;;;;;20.48;58.55;100124.19;4331577;33;33258;-85
2022/06/12 02:54:00;;;;;;;3.10;2.80;;;;;;;20.59;58.10;100126.84;4331895;33;33551;-85
2022/06/12 02:56:34;;;;;;;3.40;3.10;;;;;;;20.73;57.75;100130.28;4343195;33;33035;-85
2022/06/12 02:59:07;;;;;;;3.70;2.47;;;;;;;20.52;58.31;100131.03;4332072;33;33174;-85
2022/06/12 03:01:48;;;;;;;2.67;2.47;;;;;;;20.60;58.14;100131.25;4339041;33;33976;-85
2022/06/12 03:04:25;;;;;;;6.15;3.35;;;;;;;20.62;58.06;100136.50;4333088;33;34490;-87
2022/06/12 03:06:57;;;;;;;4.50;2.78;;;;;;;20.47;58.76;100138.59;4311779;33;33482;-86
2022/06/12 03:09:26;;;;;;;6.82;2.40;;;;;;;20.33;58.70;100136.97;4320937;33;31933;-86
2022/06/12 03:11:55;;;;;;;4.43;3.17;;;;;;;20.44;58.52;100136.09;4332863;33;34587;-86
2022/06/12 03:14:25;;;;;;;3.00;2.80;;;;;;;20.37;58.85;100142.94;4326599;33;32627;-86
2022/06/12 03:16:53;;;;;;;3.05;2.75;;;;;;;20.43;58.74;100139.78;4333055;33;34440;-86
2022/06/12 03:19:27;;;;;;;3.58;3.17;;;;;;;20.53;58.45;100140.78;4328993;33;33775;-87
2022/06/12 03:22:27;;;;;;;8.13;2.87;;;;;;;20.40;59.01;100142.69;4308312;33;32666;-87
2022/06/12 03:25:08;;;;;;;3.95;2.75;;;;;;;20.20;59.71;100146.94;4319780;33;32927;-88
2022/06/12 03:28:05;;;;;;;3.22;2.80;;;;;;;20.23;59.53;100151.22;4345000;33;32639;-87
2022/06/12 03:30:48;;;;;;;4.20;2.72;;;;;;;20.33;59.32;100141.47;4332717;33;33438;-87
2022/06/12 03:33:32;;;;;;;3.47;2.90;;;;;;;20.14;60.02;100142.06;4327381;33;32730;-88
2022/06/12 03:36:22;;;;;;;5.28;3.08;;;;;;;20.17;60.04;100149.84;4343083;33;34620;-87
2022/06/12 03:39:01;;;;;;;6.22;3.33;;;;;;;19.84;60.95;100148.81;4329871;33;33428;-87
2022/06/12 03:41:34;;;;;;;2.67;2.47;;;;;;;20.20;59.72;100146.94;4343316;32;32306;-88
2022/06/12 03:44:12;;;;;;;3.30;2.90;;;;;;;20.11;58.21;100147.66;4320524;33;33383;-88
2022/06/12 03:47:00;;;;;;;4.75;2.12;;;;;;;20.30;58.17;100147.06;4332391;33;34331;-86
2022/06/12 03:49:33;;;;;;;5.20;3.50;;;;;;;20.45;58.35;100151.22;4344549;33;34492;-87
2022/06/12 03:52:15;;;;;;;6.60;3.03;;;;;;;20.44;59.63;100154.88;4318424;33;32552;-89
2022/06/12 03:55:14;;;;;;;3.62;2.72;;;;;;;20.65;58.73;100152.34;4319791;33;34121;-89
2022/06/12 03:57:56;;;;;;;3.97;2.47;;;;;;;20.75;59.12;100152.44;4318577;33;34251;-90
2022/06/12 04:01:05;;;;;;;4.53;2.85;;;;;;;20.97;58.94;100152.44;4336942;33;33149;-87
2022/06/12 04:03:38;;;;;;;3.90;2.45;;;;;;;21.32;57.36;100156.78;4333062;33;32578;-86
2022/06/12 04:06:12;;;;;;;3.03;2.70;;;;;;;21.55;55.94;100158.38;4331232;33;33951;-86
2022/06/12 04:08:45;;;;;;;3.00;2.50;;;;;;;21.54;55.22;100155.84;4345384;33;34383;-87
2022/06/12 04:11:17;;;;;;;4.45;2.10;;;;;;;21.50;55.73;100159.75;4320194;33;32790;-86
2022/06/12 04:13:46;;;;;;;3.55;2.60;;;;;;;21.63;55.10;100153.22;4320625;33;33688;-86
2022/06/12 04:16:25;;;;;;;4.80;2.62;;;;;;;21.47;55.79;100156.38;4330143;33;34015;-88
2022/06/12 04:18:55;;;;;;;5.72;2.92;;;;;;;21.85;54.30;100152.28;4339881;33;33360;-86
2022/06/12 04:21:43;;;;;;;2.92;2.62;;;;;;;21.64;56.63;100152.25;4332271;33;33405;-86
2022/06/12 04:24:32;;;;;;;5.57;2.00;;;;;;;21.85;56.02;100159.50;4325149;33;33890;-86
2022/06/12 04:27:25;;;;;;;5.07;2.30;;;;;;;21.91;54.74;100153.59;4338534;32;33783;-85
2022/06/12 04:30:00;;;;;;;3.70;2.28;;;;;;;22.19;54.04;100147.56;4276905;33;2005340;-86
2022/06/12 04:32:30;;;;;;;2.35;2.00;;;;;;;22.46;52.71;100148.84;4316418;33;33814;-86
2022/06/12 04:34:59;;;;;;;2.53;2.05;;;;;;;22.81;49.86;100150.25;4327823;33;33775;-86
2022/06/12 04:37:30;;;;;;;2.50;1.80;;;;;;;22.80;50.27;100153.94;4315742;33;33652;-86
2022/06/12 04:40:00;;;;;;;5.68;1.83;;;;;;;22.81;50.52;100158.34;4317965;33;32330;-86
2022/06/12 04:42:31;;;;;;;2.95;2.37;;;;;;;22.72;50.76;100160.84;4329338;33;34044;-87
2022/06/12 04:45:00;;;;;;;4.60;1.70;;;;;;;22.95;50.07;100155.28;4329719;33;32701;-86
2022/06/12 04:47:33;;;;;;;4.00;1.53;;;;;;;22.87;50.77;100158.63;4320691;33;34708;-87
2022/06/12 04:50:02;;;;;;;6.10;1.77;;;;;;;23.06;48.57;100157.00;4328682;33;33283;-87
2022/06/12 04:52:31;;;;;;;7.60;2.08;;;;;;;22.99;48.95;100156.72;4327666;33;33687;-87
2022/06/12 04:54:58;;;;;;;4.60;2.37;;;;;;;22.89;47.75;100159.37;4326467;33;33381;-87
2022/06/12 04:57:26;;;;;;;3.25;1.85;;;;;;;23.03;48.34;100158.16;4328664;33;32835;-86
2022/06/12 04:59:54;;;;;;;4.72;2.20;;;;;;;23.05;48.40;100158.00;4340612;33;34002;-86
2022/06/12 05:02:23;;;;;;;3.03;2.08;;;;;;;23.47;48.22;100155.94;4338399;32;33893;-86
2022/06/12 05:04:51;;;;;;;3.58;2.12;;;;;;;23.54;47.68;100157.06;4329200;33;33856;-86
2022/06/12 05:07:21;;;;;;;2.28;1.45;;;;;;;23.59;48.35;100151.25;4330038;33;32566;-84
2022/06/12 05:09:50;;;;;;;2.28;1.45;;;;;;;23.35;47.90;100157.91;4328325;33;33072;-85
2022/06/12 05:12:18;;;;;;;2.83;1.65;;;;;;;23.82;47.80;100163.47;4339408;33;33721;-85
2022/06/12 05:14:48;;;;;;;2.17;1.80;;;;;;;23.91;46.27;100153.69;4340593;33;33324;-84
2022/06/12 05:17:20;;;;;;;3.10;1.75;;;;;;;23.76;46.79;100162.22;4326902;33;33045;-84
2022/06/12 05:19:51;;;;;;;2.95;1.48;;;;;;;23.76;45.82;100156.81;4328084;33;34195;-86
2022/06/12 05:22:22;;;;;;;2.75;1.70;;;;;;;23.90;45.99;100160.91;4325476;33;32169;-86
2022/06/12 05:24:50;;;;;;;1.80;1.50;;;;;;;24.05;45.51;100160.47;4340409;33;33611;-85
2022/06/12 05:27:21;;;;;;;1.92;1.40;;;;;;;24.20;45.64;100154.47;4329649;33;33447;-86
2022/06/12 05:29:49;;;;;;;5.80;1.83;;;;;;;24.37;45.50;100165.53;4318016;33;33020;-86
2022/06/12 05:32:23;;;;;;;1.98;1.60;;;;;;;24.61;45.50;100165.87;4335173;33;33122;-85
2022/06/12 05:34:52;;;;;;;3.70;1.75;;;;;;;24.38;44.00;100167.25;4341767;32;33411;-86
2022/06/12 05:37:22;;;;;;;4.10;2.03;;;;;;;24.69;44.09;100170.56;4327437;33;33086;-86
2022/06/12 05:39:51;;;;;;;1.83;1.62;;;;;;;24.73;44.10;100178.19;4328934;33;33337;-85
2022/06/12 05:42:23;;;;;;;2.10;2.00;;;;;;;24.44;45.10;100177.44;4314354;33;33163;-84
2022/06/12 05:44:52;;;;;;;3.17;1.58;;;;;;;24.47;44.81;100177.16;4330430;33;33136;-84
2022/06/12 05:47:23;;;;;;;3.92;1.90;;;;;;;24.72;45.30;100176.47;4351872;32;32884;-84
2022/06/12 05:49:57;;;;;;;1.52;1.27;;;;;;;24.45;44.07;100174.62;4328347;33;33695;-84
2022/06/12 05:52:25;;;;;;;3.22;2.03;;;;;;;24.67;44.35;100181.47;4340087;33;34572;-84
2022/06/12 05:54:55;;;;;;;2.17;1.75;;;;;;;25.05;44.54;100182.28;4338661;33;33160;-85
2022/06/12 05:57:24;;;;;;;2.97;2.00;;;;;;;24.92;44.55;100177.22;4339620;33;34654;-86
2022/06/12 05:59:58;;;;;;;4.20;2.05;;;;;;;24.90;42.80;100186.50;4328623;33;33753;-86
2022/06/12 06:02:27;;;;;;;;;;;;;;;25.11;43.08;100187.13;4326312;33;32918;-86
2022/06/12 06:04:56;;;;;;;2.20;1.45;;;;;;;25.59;41.89;100180.56;4354381;32;33184;-85
2022/06/12 06:07:24;;;;;;;2.08;1.45;;;;;;;25.57;42.23;100184.41;4319680;33;33960;-87
2022/06/12 06:09:52;;;;;;;1.95;1.27;;;;;;;25.53;41.07;100187.41;4342492;33;33923;-84
2022/06/12 06:12:22;;;;;;;3.72;1.70;;;;;;;25.46;42.59;100182.78;4339652;33;34649;-86
2022/06/12 06:14:53;;;;;;;2.03;1.73;;;;;;;25.57;40.81;100187.97;4331684;33;34020;-86
2022/06/12 06:17:22;;;;;;;4.65;1.77;;;;;;;25.89;42.32;100183.91;4319796;33;32659;-86
2022/06/12 06:19:53;;;;;;;2.33;1.80;;;;;;;25.85;40.32;100193.31;4330670;33;32925;-85
2022/06/12 06:25:03;;;;;;;2.75;1.67;;;;;;;25.80;40.53;100182.97;4334707;33;34195;-85
2022/06/12 06:27:38;;;;;;;1.80;1.58;;;;;;;25.79;41.48;100187.53;4341739;33;34662;-86
2022/06/12 06:30:14;;;;;;;2.20;2.00;;;;;;;26.30;40.40;100175.06;4317654;33;33342;-85
2022/06/12 06:32:44;;;;;;;2.33;1.70;;;;;;;26.58;41.10;100183.03;4317965;33;34540;-85
2022/06/12 06:35:15;;;;;;;3.65;1.90;;;;;;;26.55;38.78;100183.37;4312862;33;33302;-85
2022/06/12 06:37:52;;;;;;;3.60;1.70;;;;;;;26.41;39.79;100182.06;4325896;33;34315;-85
2022/06/12 06:40:26;;;;;;;2.92;1.60;;;;;;;26.42;39.20;100183.78;4329699;33;34463;-85
2022/06/12 06:42:55;;;;;;;;;;;;;;;26.50;38.90;100180.31;4329737;33;34514;-85
2022/06/12 06:48:16;;;;;;;4.97;2.75;;;;;;;26.67;37.36;100181.22;4330301;33;33511;-85
2022/06/12 06:50:46;;;;;;;3.65;1.62;;;;;;;26.87;38.21;100176.41;4325488;33;33559;-85
2022/06/12 06:53:14;;;;;;;2.75;1.62;;;;;;;27.12;37.13;100186.37;4329309;33;33119;-85
2022/06/12 06:55:43;;;;;;;5.15;1.73;;;;;;;27.11;37.20;100181.09;4329712;33;32510;-85
2022/06/12 06:58:18;;;;;;;2.15;1.92;;;;;;;27.12;37.10;100182.81;4328914;33;32708;-85
2022/06/12 07:00:49;;;;;;;2.37;1.70;;;;;;;27.26;36.56;100182.19;4330617;33;33726;-88
2022/06/12 07:03:29;;;;;;;2.67;2.10;;;;;;;27.25;36.41;100181.34;4319611;33;33428;-88
2022/06/12 07:06:07;;;;;;;2.85;1.92;;;;;;;26.76;37.07;100180.25;4342164;33;34431;-88
2022/06/12 07:08:36;;;;;;;3.28;1.60;;;;;;;27.01;37.27;100183.91;4319074;33;33949;-89
2022/06/12 07:11:06;;;;;;;2.03;1.80;;;;;;;26.43;38.25;100179.22;4345145;32;32668;-88
2022/06/12 07:13:36;;;;;;;2.75;1.85;;;;;;;27.10;38.94;100177.53;4321555;33;32881;-89
2022/06/12 07:16:11;;;;;;;1.73;1.62;;;;;;;27.50;36.01;100174.09;4332560;33;33004;-88
2022/06/12 07:18:40;;;;;;;1.75;1.65;;;;;;;27.45;35.54;100176.47;4333397;33;34041;-88
2022/06/12 07:21:17;;;;;;;1.85;1.50;;;;;;;27.65;36.33;100176.16;4332904;33;34227;-89
2022/06/12 07:23:54;;;;;;;2.75;2.08;;;;;;;27.84;35.39;100175.00;4321357;33;33385;-88
2022/06/12 07:26:44;;;;;;;1.70;1.60;;;;;;;27.93;36.70;100163.97;4321215;33;32404;-89
2022/06/12 07:29:17;;;;;;;2.72;1.70;;;;;;;27.76;37.59;100170.41;4327224;33;33973;-89
2022/06/12 07:31:48;;;;;;;1.98;1.70;;;;;;;28.23;36.99;100164.28;4330513;33;34107;-88
2022/06/12 07:34:17;;;;;;;3.37;2.05;;;;;;;27.99;35.68;100167.88;4318480;33;34044;-88
2022/06/12 07:36:49;;;;;;;2.58;1.90;;;;;;;28.20;34.80;100156.47;4344361;33;32323;-89
2022/06/12 07:39:33;;;;;;;3.53;1.83;;;;;;;28.31;35.55;100159.69;4331637;33;34349;-89
2022/06/12 07:42:06;;;;;;;2.20;1.80;;;;;;;28.58;35.03;100160.31;4318737;33;32668;-89
2022/06/12 07:44:43;;;;;;;1.92;1.60;;;;;;;28.48;34.98;100162.37;4321323;33;33334;-89
2022/06/12 07:47:17;;;;;;;2.22;1.98;;;;;;;28.46;35.23;100164.44;4326120;33;33032;-89
2022/06/12 07:49:55;;;;;;;1.80;1.70;;;;;;;28.34;35.63;100161.22;4346796;32;32524;-90
2022/06/12 07:52:26;;;;;;;1.65;1.48;;;;;;;28.42;34.69;100155.78;4332920;33;33369;-90
2022/06/12 07:54:56;;;;;;;3.80;1.73;;;;;;;28.42;33.94;100169.34;4320786;33;33497;-89
2022/06/12 07:57:27;;;;;;;2.92;1.58;;;;;;;28.65;34.07;100158.59;4313309;33;32624;-89
2022/06/12 07:59:59;;;;;;;1.65;1.50;;;;;;;28.53;33.65;100162.69;4320809;33;33386;-89
2022/06/12 08:02:29;;;;;;;2.28;1.73;;;;;;;28.56;33.35;100159.66;4332978;33;32627;-89
2022/06/12 08:05:08;;;;;;;3.70;1.80;;;;;;;28.83;32.89;100161.94;4320676;33;33929;-89
2022/06/12 08:07:38;;;;;;;3.70;1.60;;;;;;;28.58;34.15;100158.47;4332821;33;33744;-89
2022/06/12 08:10:09;;;;;;;4.95;1.70;;;;;;;28.81;35.97;100163.13;4331167;33;33967;-89
2022/06/12 08:12:45;;;;;;;2.90;1.83;;;;;;;29.14;34.39;100161.12;4318565;33;34291;-89
2022/06/12 08:15:22;;;;;;;3.95;2.00;;;;;;;28.97;34.11;100162.25;4318031;33;34366;-90
2022/06/12 08:17:52;;;;;;;2.28;1.67;;;;;;;29.21;34.54;100153.97;4351482;32;32267;-90
2022/06/12 08:20:24;;;;;;;2.92;1.77;;;;;;;28.93;34.94;100161.72;4344440;33;33399;-89
2022/06/12 08:22:54;;;;;;;;;;;;;;;29.30;33.71;100158.31;4321212;33;34472;-90
2022/06/12 08:25:22;;;;;;;1.95;1.67;;;;;;;29.26;33.50;100159.72;4332774;33;34327;-91
2022/06/12 08:28:10;;;;;;;3.15;1.65;;;;;;;29.40;35.02;100157.25;4341871;33;32420;-88
2022/06/12 08:30:44;;;;;;;3.50;1.98;;;;;;;29.67;33.19;100153.16;4327359;33;32953;-87
2022/06/12 08:33:20;;;;;;;2.97;1.60;;;;;;;29.53;33.12;100146.59;4339189;32;33198;-87
2022/06/12 08:35:50;;;;;;;4.05;1.98;;;;;;;29.44;32.68;100147.69;4340300;32;34204;-87
2022/06/12 08:38:20;;;;;;;6.75;1.60;;;;;;;29.83;33.63;100143.00;4327745;33;32980;-87
2022/06/12 08:41:05;;;;;;;3.58;1.83;;;;;;;29.32;32.83;100148.09;4328052;33;32842;-86
2022/06/12 08:43:47;;;;;;;4.65;1.90;;;;;;;29.55;33.44;100144.59;4326581;33;34244;-92
2022/06/12 08:46:43;;;;;;;2.10;1.85;;;;;;;30.09;33.50;100142.56;4328027;33;33996;-86
2022/06/12 08:49:36;;;;;;;6.18;1.67;;;;;;;29.50;32.60;100153.25;4338298;32;33619;-86
2022/06/12 08:52:39;;;;;;;1.95;1.58;;;;;;;29.69;34.05;100151.94;4315947;33;33159;-86
2022/06/12 08:55:43;;;;;;;2.25;1.77;;;;;;;30.31;32.67;100145.47;4327120;32;34028;-86
2022/06/12 08:58:26;;;;;;;2.95;1.77;;;;;;;30.19;31.70;100149.66;4328557;33;34295;-86
2022/06/12 09:00:58;;;;;;;3.05;1.73;;;;;;;30.40;32.60;100148.94;4337213;32;34082;-94
2022/06/12 09:03:54;;;;;;;4.07;1.87;;;;;;;29.96;32.66;100149.66;4359431;32;34319;-85
2022/06/12 09:06:32;;;;;;;4.12;2.03;;;;;;;30.11;33.83;100139.69;4355583;32;33483;-85
2022/06/12 09:09:07;;;;;;;2.90;1.50;;;;;;;30.22;32.14;100141.97;4344671;32;33042;-86
2022/06/12 09:11:43;;;;;;;1.92;1.73;;;;;;;29.96;33.48;100141.50;4354333;32;34338;-86
2022/06/12 09:14:29;;;;;;;2.60;1.83;;;;;;;29.97;34.30;100137.78;4355871;32;34355;-85
2022/06/12 09:17:31;;;;;;;2.85;1.75;;;;;;;30.57;32.83;100140.38;4357904;32;33331;-85
2022/06/12 09:20:04;;;;;;;2.92;1.62;;;;;;;30.31;31.73;100135.41;4327264;32;33452;-85
2022/06/12 09:22:54;;;;;;;2.00;1.90;;;;;;;30.29;33.17;100137.47;4353566;32;33693;-85
2022/06/12 09:25:39;;;;;;;2.42;1.75;;;;;;;30.19;33.62;100139.59;4356480;32;31244;-86
2022/06/12 09:28:22;;;;;;;4.97;1.85;;;;;;;30.24;34.40;100141.78;4351414;32;33736;-85
2022/06/12 09:31:14;;;;;;;4.25;2.10;;;;;;;30.63;32.68;100133.34;4363176;32;34296;-85
2022/06/12 09:33:51;;;;;;;4.35;2.10;;;;;;;30.56;33.02;100132.41;4351941;32;32663;-85
2022/06/12 09:36:39;;;;;;;4.20;2.58;;;;;;;30.54;31.71;100129.03;4354447;32;32798;-85
2022/06/12 09:39:31;;;;;;;2.37;1.90;;;;;;;30.60;33.82;100125.53;4366233;32;34093;-86
2022/06/12 09:42:25;;;;;;;2.10;1.90;;;;;;;30.85;30.97;100126.94;4357717;32;34125;-86
2022/06/12 09:45:06;;;;;;;3.90;3.12;;;;;;;30.94;31.03;100118.66;4356186;32;33829;-87
2022/06/12 09:47:50;;;;;;;7.85;5.03;;;;;;;30.42;31.04;100119.63;4353782;32;33662;-87
2022/06/12 09:51:13;;;;;;;2.12;1.92;;;;;;;30.77;32.49;100121.63;4366991;32;33713;-87
2022/06/12 09:56:45;;;;;;;3.28;2.00;;;;;;;30.45;32.17;100119.25;4322206;33;32801;-87
2022/06/12 09:59:49;;;;;;;1.73;1.60;;;;;;;30.25;33.54;100108.06;4355112;32;35476;-92
2022/06/12 10:03:13;;;;;;;4.25;1.98;;;;;;;30.40;32.12;100113.53;4334318;33;32377;-95
2022/06/12 10:06:23;;;;;;;3.50;1.90;;;;;;;30.65;32.37;100103.16;4392988;32;34629;-95
2022/06/12 10:09:15;;;;;;;4.97;1.90;;;;;;;31.00;32.68;100096.06;4375916;32;32480;-90
2022/06/12 10:11:59;;;;;;;2.62;2.30;;;;;;;30.95;31.44;100093.06;4369378;32;33689;-87
2022/06/12 10:14:36;;;;;;;2.10;2.00;;;;;;;31.10;33.21;100089.28;4371819;32;33650;-87
2022/06/12 10:17:13;;;;;;;2.85;2.15;;;;;;;31.18;30.11;100087.47;4361396;32;33915;-88
2022/06/12 10:19:55;;;;;;;4.07;3.03;;;;;;;31.06;32.83;100095.31;4382851;32;32444;-88
2022/06/12 10:22:30;;;;;;;2.25;1.95;;;;;;;31.60;32.06;100092.09;4350217;32;32743;-87
2022/06/12 10:25:04;;;;;;;2.92;2.37;;;;;;;31.37;29.61;100084.97;4374004;32;33462;-88
2022/06/12 10:27:41;;;;;;;;;;;;;;;31.86;30.71;100075.97;4369410;32;33473;-88
2022/06/12 10:30:40;;;;;;;5.43;2.80;;;;;;;31.64;30.92;100079.75;4384490;32;34238;-87
2022/06/12 10:33:26;;;;;;;1.98;1.70;;;;;;;31.66;30.89;100080.38;4372249;32;33610;-88
2022/06/12 10:36:03;;;;;;;3.15;2.55;;;;;;;31.48;30.02;100077.31;4362242;32;33904;-88
2022/06/12 10:38:36;;;;;;;6.05;2.03;;;;;;;30.69;31.36;100077.22;4359294;32;33292;-88
2022/06/12 10:41:23;;;;;;;2.40;2.12;;;;;;;31.57;31.84;100070.66;4366360;32;32454;-87
2022/06/12 10:43:58;;;;;;;2.30;2.10;;;;;;;31.64;30.34;100071.56;4362741;32;35484;-87
2022/06/12 10:46:35;;;;;;;3.47;1.98;;;;;;;31.30;30.44;100075.88;4347537;32;32619;-87
2022/06/12 10:49:18;;;;;;;2.40;2.12;;;;;;;31.03;33.78;100068.41;4360282;32;33355;-88
2022/06/12 10:52:10;;;;;;;2.62;2.28;;;;;;;31.09;31.02;100067.63;4363142;32;32956;-87
2022/06/12 10:54:40;;;;;;;2.83;1.92;;;;;;;30.98;32.31;100071.72;4358968;32;32456;-88
2022/06/12 10:57:30;;;;;;;4.80;1.85;;;;;;;31.23;30.85;100063.16;4372557;32;33798;-88
2022/06/12 11:02:51;;;;;;;2.58;2.05;;;;;;;31.87;29.70;100060.44;4381504;32;33068;-87
2022/06/12 11:05:26;;;;;;;2.45;2.15;;;;;;;31.75;31.72;100059.25;4373191;32;32952;-87
2022/06/12 11:08:10;;;;;;;4.03;2.47;;;;;;;31.80;30.09;100062.22;4385338;32;34446;-88
2022/06/12 11:11:03;;;;;;;3.22;2.00;;;;;;;31.66;30.75;100064.00;4374418;32;35729;-88
2022/06/12 11:14:08;;;;;;;7.55;2.17;;;;;;;31.56;29.17;100052.59;4377634;32;34922;-87
2022/06/12 11:17:00;;;;;;;2.03;1.83;;;;;;;31.40;31.56;100050.16;4384354;32;33405;-88
2022/06/12 11:19:46;;;;;;;2.30;2.10;;;;;;;31.69;31.76;100051.88;4370097;32;33337;-88
2022/06/12 11:22:45;;;;;;;2.90;2.30;;;;;;;32.26;29.20;100057.09;4369211;32;32388;-87
2022/06/12 11:28:32;;;;;;;2.62;1.77;;;;;;;32.31;30.09;100057.34;4372271;32;32847;-87
2022/06/12 11:31:16;;;;;;;3.63;1.70;;;;;;;32.32;28.18;100053.56;4373401;32;34445;-88
2022/06/12 11:34:01;;;;;;;2.33;1.75;;;;;;;31.98;29.27;100043.50;4362240;32;35074;-88
2022/06/12 11:36:53;;;;;;;2.75;1.87;;;;;;;31.39;31.04;100051.19;4384376;32;33508;-88
2022/06/12 11:39:30;;;;;;;6.40;2.08;;;;;;;32.14;29.78;100050.50;4370888;32;34999;-88
2022/06/12 11:42:12;;;;;;;3.37;2.83;;;;;;;32.23;29.89;100048.47;4359655;32;33097;-87
2022/06/12 11:45:00;;;;;;;1.90;1.80;;;;;;;32.46;30.50;100043.56;4386549;32;34164;-87
2022/06/12 11:47:42;;;;;;;3.53;3.00;;;;;;;32.53;29.58;100043.63;4372032;32;32812;-88
2022/06/12 11:50:14;;;;;;;1.55;1.45;;;;;;;32.22;31.21;100047.63;4371372;32;33478;-88
2022/06/12 11:52:55;;;;;;;2.70;2.28;;;;;;;32.11;28.78;100045.47;4368963;32;33001;-87
2022/06/12 11:55:50;;;;;;;2.12;1.92;;;;;;;32.15;28.60;100038.56;4371005;32;33513;-88
2022/06/12 11:58:33;;;;;;;4.62;2.28;;;;;;;32.00;28.01;100035.09;4360117;32;32254;-88
2022/06/12 12:01:10;;;;;;;2.55;2.20;;;;;;;32.30;29.91;100032.97;4373598;32;33624;-87
2022/06/12 12:03:56;;;;;;;5.62;2.03;;;;;;;32.57;28.74;100042.12;4382634;32;32519;-88
2022/06/12 12:06:33;;;;;;;3.12;1.80;;;;;;;32.07;32.25;100027.78;4365375;32;34971;-88
2022/06/12 12:09:51;;;;;;;3.90;2.03;;;;;;;32.61;29.48;100035.22;4371517;32;34014;-88
2022/06/12 12:12:29;;;;;;;3.12;2.42;;;;;;;32.57;29.26;100023.87;4363148;32;32822;-87
2022/06/12 12:15:00;;;;;;;6.37;2.28;;;;;;;32.57;28.86;100012.06;4362392;32;34192;-89
2022/06/12 12:17:34;;;;;;;2.05;1.85;;;;;;;31.61;29.71;100022.81;4367530;32;34055;-88
2022/06/12 12:20:28;;;;;;;2.58;2.00;;;;;;;32.50;28.74;100006.59;4359692;32;33810;-88
2022/06/12 12:23:15;;;;;;;2.20;2.00;;;;;;;32.77;29.37;100002.06;4363263;32;33266;-88
2022/06/12 12:25:51;;;;;;;;;;;;;;;32.83;28.22;100001.22;4379641;32;33575;-88
2022/06/12 12:28:41;;;;;;;2.10;1.90;;;;;;;32.72;30.18;99999.09;4381291;32;34878;-88
2022/06/12 12:31:16;;;;;;;4.68;2.37;;;;;;;32.66;28.96;99994.44;4358459;32;31880;-89
2022/06/12 12:33:51;;;;;;;1.70;1.60;;;;;;;32.33;30.79;99994.28;4371449;32;32681;-88
2022/06/12 12:42:39;;;;;;;2.40;2.03;;;;;;;32.40;30.33;99991.63;4360349;32;32490;-89